sensor_id;sensor_type;location;lat;lon;timestamp;temperature;humidity
2687;DHT22;1353;51.386;7.028;2022-12-28T00:01:05;5.10;99.90
2687;DHT22;1353;51.386;7.028;2022-12-28T00:03:33;5.30;99.90
2687;DHT22;1353;51.386;7.028;2022-12-28T00:06:00;5.20;99.90
2687;DHT22;1353;51.386;7.028;2022-12-28T00:08:26;5.30;99.90
2687;DHT22;1353;51.386;7.028;2022-12-28T00:10:58;5.20;99.90
2687;DHT22;1353;51.386;7.028;2022-12-28T00:13:26;5.30;99.90
2687;DHT22;1353;51.386;7.028;2022-12-28T00:15:52;5.20;99.90
2687;DHT22;1353;51.386;7.028;2022-12-28T00:18:19;5.30;99.90
2687;DHT22;1353;51.386;7.028;2022-12-28T00:20:56;5.30;99.90
2687;DHT22;1353;51.386;7.028;2022-12-28T00:23:22;5.40;99.90
2687;DHT22;1353;51.386;7.028;2022-12-28T00:25:49;5.50;99.90
2687;DHT22;1353;51.386;7.028;2022-12-28T00:28:16;5.40;99.90
2687;DHT22;1353;51.386;7.028;2022-12-28T00:30:43;5.50;99.90
2687;DHT22;1353;51.386;7.028;2022-12-28T00:33:10;5.50;99.90
2687;DHT22;1353;51.386;7.028;2022-12-28T00:35:36;5.50;99.90
2687;DHT22;1353;51.386;7.028;2022-12-28T00:38:05;5.50;99.90
2687;DHT22;1353;51.386;7.028;2022-12-28T00:40:31;5.40;99.90
2687;DHT22;1353;51.386;7.028;2022-12-28T00:42:58;5.10;99.90
2687;DHT22;1353;51.386;7.028;2022-12-28T00:45:25;5.00;99.90
2687;DHT22;1353;51.386;7.028;2022-12-28T00:47:51;4.80;99.90
2687;DHT22;1353;51.386;7.028;2022-12-28T00:50:18;4.80;99.90
2687;DHT22;1353;51.386;7.028;2022-12-28T00:52:45;4.80;99.90
2687;DHT22;1353;51.386;7.028;2022-12-28T00:55:13;4.90;99.90
2687;DHT22;1353;51.386;7.028;2022-12-28T00:57:39;5.00;99.90
2687;DHT22;1353;51.386;7.028;2022-12-28T01:00:07;4.90;99.90
2687;DHT22;1353;51.386;7.028;2022-12-28T01:02:34;4.90;99.90
2687;DHT22;1353;51.386;7.028;2022-12-28T01:05:01;4.90;99.90
2687;DHT22;1353;51.386;7.028;2022-12-28T01:07:27;4.90;99.90
2687;DHT22;1353;51.386;7.028;2022-12-28T01:09:54;5.00;99.90
2687;DHT22;1353;51.386;7.028;2022-12-28T01:12:22;5.10;99.90
2687;DHT22;1353;51.386;7.028;2022-12-28T01:14:49;5.00;99.90
2687;DHT22;1353;51.386;7.028;2022-12-28T01:17:15;5.10;99.90
2687;DHT22;1353;51.386;7.028;2022-12-28T01:19:42;5.10;99.90
2687;DHT22;1353;51.386;7.028;2022-12-28T01:22:09;5.00;99.90
2687;DHT22;1353;51.386;7.028;2022-12-28T01:24:36;5.00;99.90
2687;DHT22;1353;51.386;7.028;2022-12-28T01:27:02;5.00;99.90
2687;DHT22;1353;51.386;7.028;2022-12-28T01:29:30;5.00;99.90
2687;DHT22;1353;51.386;7.028;2022-12-28T01:31:58;5.00;99.90
2687;DHT22;1353;51.386;7.028;2022-12-28T01:34:24;5.00;99.90
2687;DHT22;1353;51.386;7.028;2022-12-28T01:36:51;5.00;99.90
2687;DHT22;1353;51.386;7.028;2022-12-28T01:39:18;5.00;99.90
2687;DHT22;1353;51.386;7.028;2022-12-28T01:41:45;5.00;99.90
2687;DHT22;1353;51.386;7.028;2022-12-28T01:44:41;5.10;99.90
2687;DHT22;1353;51.386;7.028;2022-12-28T01:47:14;5.10;99.90
2687;DHT22;1353;51.386;7.028;2022-12-28T01:49:46;5.10;99.90
2687;DHT22;1353;51.386;7.028;2022-12-28T01:52:16;5.20;99.90
2687;DHT22;1353;51.386;7.028;2022-12-28T01:54:49;5.30;99.90
2687;DHT22;1353;51.386;7.028;2022-12-28T01:57:17;5.30;99.90
2687;DHT22;1353;51.386;7.028;2022-12-28T01:59:50;5.30;99.90
2687;DHT22;1353;51.386;7.028;2022-12-28T02:02:19;5.30;99.90
2687;DHT22;1353;51.386;7.028;2022-12-28T02:04:47;5.40;99.90
2687;DHT22;1353;51.386;7.028;2022-12-28T02:07:20;5.30;99.90
2687;DHT22;1353;51.386;7.028;2022-12-28T02:09:48;5.40;99.90
2687;DHT22;1353;51.386;7.028;2022-12-28T02:12:16;5.40;99.90
2687;DHT22;1353;51.386;7.028;2022-12-28T02:14:43;5.40;99.90
2687;DHT22;1353;51.386;7.028;2022-12-28T02:17:12;5.50;99.90
2687;DHT22;1353;51.386;7.028;2022-12-28T02:19:43;5.60;99.90
2687;DHT22;1353;51.386;7.028;2022-12-28T02:22:38;5.50;99.90
2687;DHT22;1353;51.386;7.028;2022-12-28T02:25:40;5.60;99.90
2687;DHT22;1353;51.386;7.028;2022-12-28T02:28:23;5.70;99.90
2687;DHT22;1353;51.386;7.028;2022-12-28T02:31:01;5.70;99.90
2687;DHT22;1353;51.386;7.028;2022-12-28T02:33:36;5.70;99.90
2687;DHT22;1353;51.386;7.028;2022-12-28T02:36:11;5.70;99.90
2687;DHT22;1353;51.386;7.028;2022-12-28T02:38:45;5.60;99.90
2687;DHT22;1353;51.386;7.028;2022-12-28T02:41:15;5.80;99.90
2687;DHT22;1353;51.386;7.028;2022-12-28T02:43:43;5.80;99.90
2687;DHT22;1353;51.386;7.028;2022-12-28T02:46:17;5.80;99.90
2687;DHT22;1353;51.386;7.028;2022-12-28T02:49:16;5.80;99.90
2687;DHT22;1353;51.386;7.028;2022-12-28T02:52:07;5.70;99.90
2687;DHT22;1353;51.386;7.028;2022-12-28T02:55:07;5.70;99.90
2687;DHT22;1353;51.386;7.028;2022-12-28T02:58:14;5.70;99.90
2687;DHT22;1353;51.386;7.028;2022-12-28T03:00:55;5.80;99.90
2687;DHT22;1353;51.386;7.028;2022-12-28T03:03:31;5.80;99.90
2687;DHT22;1353;51.386;7.028;2022-12-28T03:06:09;5.80;99.90
2687;DHT22;1353;51.386;7.028;2022-12-28T03:09:01;5.80;99.90
2687;DHT22;1353;51.386;7.028;2022-12-28T03:11:34;5.80;99.90
2687;DHT22;1353;51.386;7.028;2022-12-28T03:14:06;5.70;99.90
2687;DHT22;1353;51.386;7.028;2022-12-28T03:16:36;5.70;99.90
2687;DHT22;1353;51.386;7.028;2022-12-28T03:19:28;5.70;99.90
2687;DHT22;1353;51.386;7.028;2022-12-28T03:22:13;5.80;99.90
2687;DHT22;1353;51.386;7.028;2022-12-28T03:25:00;5.70;99.90
2687;DHT22;1353;51.386;7.028;2022-12-28T03:27:48;5.70;99.90
2687;DHT22;1353;51.386;7.028;2022-12-28T03:30:34;5.80;99.90
2687;DHT22;1353;51.386;7.028;2022-12-28T03:33:20;5.80;99.90
2687;DHT22;1353;51.386;7.028;2022-12-28T03:35:53;5.70;99.90
2687;DHT22;1353;51.386;7.028;2022-12-28T03:38:26;5.70;99.90
2687;DHT22;1353;51.386;7.028;2022-12-28T03:41:00;5.70;99.90
2687;DHT22;1353;51.386;7.028;2022-12-28T03:43:32;5.80;99.90
2687;DHT22;1353;51.386;7.028;2022-12-28T03:46:12;5.90;99.90
2687;DHT22;1353;51.386;7.028;2022-12-28T03:48:40;5.90;99.90
2687;DHT22;1353;51.386;7.028;2022-12-28T03:51:08;5.80;99.90
2687;DHT22;1353;51.386;7.028;2022-12-28T03:53:39;5.90;99.90
2687;DHT22;1353;51.386;7.028;2022-12-28T03:56:08;6.00;99.90
2687;DHT22;1353;51.386;7.028;2022-12-28T03:58:35;6.00;99.90
2687;DHT22;1353;51.386;7.028;2022-12-28T04:01:02;5.90;99.90
2687;DHT22;1353;51.386;7.028;2022-12-28T04:03:29;6.00;99.90
2687;DHT22;1353;51.386;7.028;2022-12-28T04:05:55;6.00;99.90
2687;DHT22;1353;51.386;7.028;2022-12-28T04:08:24;6.10;99.90
2687;DHT22;1353;51.386;7.028;2022-12-28T04:10:50;6.00;99.90
2687;DHT22;1353;51.386;7.028;2022-12-28T04:13:17;6.00;99.90
2687;DHT22;1353;51.386;7.028;2022-12-28T04:15:54;6.00;99.90
2687;DHT22;1353;51.386;7.028;2022-12-28T04:18:20;6.10;99.90
2687;DHT22;1353;51.386;7.028;2022-12-28T04:20:47;6.10;99.90
2687;DHT22;1353;51.386;7.028;2022-12-28T04:23:14;6.10;99.90
2687;DHT22;1353;51.386;7.028;2022-12-28T04:25:42;6.20;99.90
2687;DHT22;1353;51.386;7.028;2022-12-28T04:28:09;6.20;99.90
2687;DHT22;1353;51.386;7.028;2022-12-28T04:30:35;6.20;99.90
2687;DHT22;1353;51.386;7.028;2022-12-28T04:33:02;6.20;99.90
2687;DHT22;1353;51.386;7.028;2022-12-28T04:35:31;6.10;99.90
2687;DHT22;1353;51.386;7.028;2022-12-28T04:37:57;6.10;99.90
2687;DHT22;1353;51.386;7.028;2022-12-28T04:40:24;6.00;99.90
2687;DHT22;1353;51.386;7.028;2022-12-28T04:42:52;6.00;99.90
2687;DHT22;1353;51.386;7.028;2022-12-28T04:45:19;6.00;99.90
2687;DHT22;1353;51.386;7.028;2022-12-28T04:47:45;6.00;99.90
2687;DHT22;1353;51.386;7.028;2022-12-28T04:50:12;6.00;99.90
2687;DHT22;1353;51.386;7.028;2022-12-28T04:52:39;6.00;99.90
2687;DHT22;1353;51.386;7.028;2022-12-28T04:55:06;6.00;99.90
2687;DHT22;1353;51.386;7.028;2022-12-28T04:57:33;6.00;99.90
2687;DHT22;1353;51.386;7.028;2022-12-28T05:00:01;6.00;99.90
2687;DHT22;1353;51.386;7.028;2022-12-28T05:02:27;6.00;99.90
2687;DHT22;1353;51.386;7.028;2022-12-28T05:04:54;6.00;99.90
2687;DHT22;1353;51.386;7.028;2022-12-28T05:07:21;6.00;99.90
2687;DHT22;1353;51.386;7.028;2022-12-28T05:09:48;6.10;99.90
2687;DHT22;1353;51.386;7.028;2022-12-28T05:12:14;6.10;99.90
2687;DHT22;1353;51.386;7.028;2022-12-28T05:14:41;6.20;99.90
2687;DHT22;1353;51.386;7.028;2022-12-28T05:17:10;6.20;99.90
2687;DHT22;1353;51.386;7.028;2022-12-28T05:19:37;6.20;99.90
2687;DHT22;1353;51.386;7.028;2022-12-28T05:22:03;6.20;99.90
2687;DHT22;1353;51.386;7.028;2022-12-28T05:24:36;6.20;99.90
2687;DHT22;1353;51.386;7.028;2022-12-28T05:27:02;6.20;99.90
2687;DHT22;1353;51.386;7.028;2022-12-28T05:29:29;6.20;99.90
2687;DHT22;1353;51.386;7.028;2022-12-28T05:31:56;6.20;99.90
2687;DHT22;1353;51.386;7.028;2022-12-28T05:34:24;6.20;99.90
2687;DHT22;1353;51.386;7.028;2022-12-28T05:36:51;6.10;99.90
2687;DHT22;1353;51.386;7.028;2022-12-28T05:39:17;6.20;99.90
2687;DHT22;1353;51.386;7.028;2022-12-28T05:41:44;6.20;99.90
2687;DHT22;1353;51.386;7.028;2022-12-28T05:44:11;6.20;99.90
2687;DHT22;1353;51.386;7.028;2022-12-28T05:46:37;6.20;99.90
2687;DHT22;1353;51.386;7.028;2022-12-28T05:49:06;6.30;99.90
2687;DHT22;1353;51.386;7.028;2022-12-28T05:51:35;6.30;99.90
2687;DHT22;1353;51.386;7.028;2022-12-28T05:54:02;6.30;99.90
2687;DHT22;1353;51.386;7.028;2022-12-28T05:56:30;6.30;99.90
2687;DHT22;1353;51.386;7.028;2022-12-28T05:58:59;6.40;99.90
2687;DHT22;1353;51.386;7.028;2022-12-28T06:01:27;6.30;99.90
2687;DHT22;1353;51.386;7.028;2022-12-28T06:03:56;6.40;99.90
2687;DHT22;1353;51.386;7.028;2022-12-28T06:06:23;6.40;99.90
2687;DHT22;1353;51.386;7.028;2022-12-28T06:08:51;6.40;99.90
2687;DHT22;1353;51.386;7.028;2022-12-28T06:11:20;6.40;99.90
2687;DHT22;1353;51.386;7.028;2022-12-28T06:13:47;6.40;99.90
2687;DHT22;1353;51.386;7.028;2022-12-28T06:16:15;6.50;99.90
2687;DHT22;1353;51.386;7.028;2022-12-28T06:18:42;6.50;99.90
2687;DHT22;1353;51.386;7.028;2022-12-28T06:21:13;6.50;99.90
2687;DHT22;1353;51.386;7.028;2022-12-28T06:23:40;6.50;99.90
2687;DHT22;1353;51.386;7.028;2022-12-28T06:26:11;6.60;99.90
2687;DHT22;1353;51.386;7.028;2022-12-28T06:28:39;6.70;99.90
2687;DHT22;1353;51.386;7.028;2022-12-28T06:31:09;6.80;99.90
2687;DHT22;1353;51.386;7.028;2022-12-28T06:33:36;6.80;99.90
2687;DHT22;1353;51.386;7.028;2022-12-28T06:36:03;6.80;99.90
2687;DHT22;1353;51.386;7.028;2022-12-28T06:38:31;6.90;99.90
2687;DHT22;1353;51.386;7.028;2022-12-28T06:41:01;6.90;99.90
2687;DHT22;1353;51.386;7.028;2022-12-28T06:43:31;7.00;99.90
2687;DHT22;1353;51.386;7.028;2022-12-28T06:45:59;7.00;99.90
2687;DHT22;1353;51.386;7.028;2022-12-28T06:48:26;7.10;99.90
2687;DHT22;1353;51.386;7.028;2022-12-28T06:50:54;7.10;99.90
2687;DHT22;1353;51.386;7.028;2022-12-28T06:53:21;7.00;99.90
2687;DHT22;1353;51.386;7.028;2022-12-28T06:55:52;7.00;99.90
2687;DHT22;1353;51.386;7.028;2022-12-28T06:58:19;7.00;99.90
2687;DHT22;1353;51.386;7.028;2022-12-28T07:00:48;7.20;99.90
2687;DHT22;1353;51.386;7.028;2022-12-28T07:03:14;7.10;99.90
2687;DHT22;1353;51.386;7.028;2022-12-28T07:05:41;7.10;99.90
2687;DHT22;1353;51.386;7.028;2022-12-28T07:08:08;7.10;99.90
2687;DHT22;1353;51.386;7.028;2022-12-28T07:10:35;7.10;99.90
2687;DHT22;1353;51.386;7.028;2022-12-28T07:13:02;7.10;99.90
2687;DHT22;1353;51.386;7.028;2022-12-28T07:15:29;7.10;99.90
2687;DHT22;1353;51.386;7.028;2022-12-28T07:17:57;7.10;99.90
2687;DHT22;1353;51.386;7.028;2022-12-28T07:20:23;7.10;99.90
2687;DHT22;1353;51.386;7.028;2022-12-28T07:22:50;7.10;99.90
2687;DHT22;1353;51.386;7.028;2022-12-28T07:25:17;7.10;99.90
2687;DHT22;1353;51.386;7.028;2022-12-28T07:27:43;7.20;99.90
2687;DHT22;1353;51.386;7.028;2022-12-28T07:30:11;7.20;99.90
2687;DHT22;1353;51.386;7.028;2022-12-28T07:32:38;7.30;99.90
2687;DHT22;1353;51.386;7.028;2022-12-28T07:35:07;7.30;99.90
2687;DHT22;1353;51.386;7.028;2022-12-28T07:37:34;7.30;99.90
2687;DHT22;1353;51.386;7.028;2022-12-28T07:40:01;7.20;99.90
2687;DHT22;1353;51.386;7.028;2022-12-28T07:42:28;7.30;99.90
2687;DHT22;1353;51.386;7.028;2022-12-28T07:44:55;7.30;99.90
2687;DHT22;1353;51.386;7.028;2022-12-28T07:47:21;7.30;99.90
2687;DHT22;1353;51.386;7.028;2022-12-28T07:49:48;7.40;99.90
2687;DHT22;1353;51.386;7.028;2022-12-28T07:52:16;7.30;99.90
2687;DHT22;1353;51.386;7.028;2022-12-28T07:54:43;7.40;99.90
2687;DHT22;1353;51.386;7.028;2022-12-28T07:57:09;7.40;99.90
2687;DHT22;1353;51.386;7.028;2022-12-28T07:59:36;7.40;99.90
2687;DHT22;1353;51.386;7.028;2022-12-28T08:02:03;7.50;99.90
2687;DHT22;1353;51.386;7.028;2022-12-28T08:04:48;7.50;99.90
2687;DHT22;1353;51.386;7.028;2022-12-28T08:07:16;7.50;99.90
2687;DHT22;1353;51.386;7.028;2022-12-28T08:09:43;7.50;99.90
2687;DHT22;1353;51.386;7.028;2022-12-28T08:12:09;7.50;99.90
2687;DHT22;1353;51.386;7.028;2022-12-28T08:14:36;7.50;99.90
2687;DHT22;1353;51.386;7.028;2022-12-28T08:17:03;7.50;99.90
2687;DHT22;1353;51.386;7.028;2022-12-28T08:19:30;7.60;99.90
2687;DHT22;1353;51.386;7.028;2022-12-28T08:21:57;7.50;99.90
2687;DHT22;1353;51.386;7.028;2022-12-28T08:24:25;7.70;99.90
2687;DHT22;1353;51.386;7.028;2022-12-28T08:26:51;7.70;99.90
2687;DHT22;1353;51.386;7.028;2022-12-28T08:29:20;7.70;99.90
2687;DHT22;1353;51.386;7.028;2022-12-28T08:31:47;7.70;99.90
2687;DHT22;1353;51.386;7.028;2022-12-28T08:34:16;7.80;99.90
2687;DHT22;1353;51.386;7.028;2022-12-28T08:36:43;7.70;99.90
2687;DHT22;1353;51.386;7.028;2022-12-28T08:39:10;7.70;99.90
2687;DHT22;1353;51.386;7.028;2022-12-28T08:41:38;7.80;99.90
2687;DHT22;1353;51.386;7.028;2022-12-28T08:44:05;7.90;99.90
2687;DHT22;1353;51.386;7.028;2022-12-28T08:46:33;7.80;99.90
2687;DHT22;1353;51.386;7.028;2022-12-28T08:49:01;7.90;99.90
2687;DHT22;1353;51.386;7.028;2022-12-28T08:51:32;7.90;99.90
2687;DHT22;1353;51.386;7.028;2022-12-28T08:53:59;7.90;99.90
2687;DHT22;1353;51.386;7.028;2022-12-28T08:56:28;8.00;99.90
2687;DHT22;1353;51.386;7.028;2022-12-28T08:58:58;8.00;99.90
2687;DHT22;1353;51.386;7.028;2022-12-28T09:01:26;8.00;99.90
2687;DHT22;1353;51.386;7.028;2022-12-28T09:03:54;8.10;99.90
2687;DHT22;1353;51.386;7.028;2022-12-28T09:06:23;8.10;99.90
2687;DHT22;1353;51.386;7.028;2022-12-28T09:08:52;8.10;99.90
2687;DHT22;1353;51.386;7.028;2022-12-28T09:11:19;8.10;99.90
2687;DHT22;1353;51.386;7.028;2022-12-28T09:13:46;8.10;99.90
2687;DHT22;1353;51.386;7.028;2022-12-28T09:16:17;8.20;99.90
2687;DHT22;1353;51.386;7.028;2022-12-28T09:18:45;8.20;99.90
2687;DHT22;1353;51.386;7.028;2022-12-28T09:21:13;8.30;99.90
2687;DHT22;1353;51.386;7.028;2022-12-28T09:23:41;8.30;99.90
2687;DHT22;1353;51.386;7.028;2022-12-28T09:26:10;8.30;99.90
2687;DHT22;1353;51.386;7.028;2022-12-28T09:28:37;8.40;99.90
2687;DHT22;1353;51.386;7.028;2022-12-28T09:31:06;8.50;99.90
2687;DHT22;1353;51.386;7.028;2022-12-28T09:33:35;8.50;99.90
2687;DHT22;1353;51.386;7.028;2022-12-28T09:36:20;8.60;99.90
2687;DHT22;1353;51.386;7.028;2022-12-28T09:38:48;8.60;99.90
2687;DHT22;1353;51.386;7.028;2022-12-28T09:41:23;8.70;99.90
2687;DHT22;1353;51.386;7.028;2022-12-28T09:43:53;8.70;99.90
2687;DHT22;1353;51.386;7.028;2022-12-28T09:46:22;8.70;99.90
2687;DHT22;1353;51.386;7.028;2022-12-28T09:48:53;8.70;99.90
2687;DHT22;1353;51.386;7.028;2022-12-28T09:51:28;8.70;99.90
2687;DHT22;1353;51.386;7.028;2022-12-28T09:53:56;8.80;99.90
2687;DHT22;1353;51.386;7.028;2022-12-28T09:56:33;8.80;99.90
2687;DHT22;1353;51.386;7.028;2022-12-28T09:59:03;8.90;99.90
2687;DHT22;1353;51.386;7.028;2022-12-28T10:01:31;8.90;99.90
2687;DHT22;1353;51.386;7.028;2022-12-28T10:04:01;8.90;99.90
2687;DHT22;1353;51.386;7.028;2022-12-28T10:06:30;8.90;99.90
2687;DHT22;1353;51.386;7.028;2022-12-28T10:09:02;9.00;99.90
2687;DHT22;1353;51.386;7.028;2022-12-28T10:11:32;9.00;99.90
2687;DHT22;1353;51.386;7.028;2022-12-28T10:14:13;9.00;99.90
2687;DHT22;1353;51.386;7.028;2022-12-28T10:16:42;9.00;99.90
2687;DHT22;1353;51.386;7.028;2022-12-28T10:19:17;9.00;99.90
2687;DHT22;1353;51.386;7.028;2022-12-28T10:21:45;9.00;99.90
2687;DHT22;1353;51.386;7.028;2022-12-28T10:24:12;9.10;99.90
2687;DHT22;1353;51.386;7.028;2022-12-28T10:26:40;9.10;99.90
2687;DHT22;1353;51.386;7.028;2022-12-28T10:29:14;9.10;99.90
2687;DHT22;1353;51.386;7.028;2022-12-28T10:31:42;9.10;99.90
2687;DHT22;1353;51.386;7.028;2022-12-28T10:34:16;9.20;99.90
2687;DHT22;1353;51.386;7.028;2022-12-28T10:36:46;9.30;99.90
2687;DHT22;1353;51.386;7.028;2022-12-28T10:39:15;9.30;99.90
2687;DHT22;1353;51.386;7.028;2022-12-28T10:41:43;9.30;99.90
2687;DHT22;1353;51.386;7.028;2022-12-28T10:44:16;9.30;99.90
2687;DHT22;1353;51.386;7.028;2022-12-28T10:46:51;9.30;99.90
2687;DHT22;1353;51.386;7.028;2022-12-28T10:49:20;9.20;99.90
2687;DHT22;1353;51.386;7.028;2022-12-28T10:51:59;9.30;99.90
2687;DHT22;1353;51.386;7.028;2022-12-28T10:54:31;9.40;99.90
2687;DHT22;1353;51.386;7.028;2022-12-28T10:56:59;9.50;99.90
2687;DHT22;1353;51.386;7.028;2022-12-28T10:59:26;9.60;99.90
2687;DHT22;1353;51.386;7.028;2022-12-28T11:01:54;9.60;99.90
2687;DHT22;1353;51.386;7.028;2022-12-28T11:04:51;9.60;99.90
2687;DHT22;1353;51.386;7.028;2022-12-28T11:07:26;9.60;99.90
2687;DHT22;1353;51.386;7.028;2022-12-28T11:09:53;9.60;99.90
2687;DHT22;1353;51.386;7.028;2022-12-28T11:12:23;9.70;99.90
2687;DHT22;1353;51.386;7.028;2022-12-28T11:14:50;9.70;99.90
2687;DHT22;1353;51.386;7.028;2022-12-28T11:17:20;9.70;99.90
2687;DHT22;1353;51.386;7.028;2022-12-28T11:19:50;9.70;99.90
2687;DHT22;1353;51.386;7.028;2022-12-28T11:22:21;9.80;99.90
2687;DHT22;1353;51.386;7.028;2022-12-28T11:24:49;9.80;99.90
2687;DHT22;1353;51.386;7.028;2022-12-28T11:27:18;9.70;99.90
2687;DHT22;1353;51.386;7.028;2022-12-28T11:29:47;9.80;99.90
2687;DHT22;1353;51.386;7.028;2022-12-28T11:32:17;9.70;99.90
2687;DHT22;1353;51.386;7.028;2022-12-28T11:34:44;9.70;99.90
2687;DHT22;1353;51.386;7.028;2022-12-28T11:37:13;9.80;99.90
2687;DHT22;1353;51.386;7.028;2022-12-28T11:39:42;9.70;99.90
2687;DHT22;1353;51.386;7.028;2022-12-28T11:42:10;9.70;99.90
2687;DHT22;1353;51.386;7.028;2022-12-28T11:44:51;9.60;99.90
2687;DHT22;1353;51.386;7.028;2022-12-28T11:47:26;9.60;99.90
2687;DHT22;1353;51.386;7.028;2022-12-28T11:53:00;9.70;99.90
2687;DHT22;1353;51.386;7.028;2022-12-28T11:55:41;9.60;99.90
2687;DHT22;1353;51.386;7.028;2022-12-28T11:58:42;9.40;99.90
2687;DHT22;1353;51.386;7.028;2022-12-28T12:01:09;9.10;99.90
2687;DHT22;1353;51.386;7.028;2022-12-28T12:04:07;8.90;99.90
2687;DHT22;1353;51.386;7.028;2022-12-28T12:12:55;8.70;99.90
2687;DHT22;1353;51.386;7.028;2022-12-28T12:15:26;8.80;99.90
2687;DHT22;1353;51.386;7.028;2022-12-28T12:18:00;8.90;99.90
2687;DHT22;1353;51.386;7.028;2022-12-28T12:20:42;8.90;99.90
2687;DHT22;1353;51.386;7.028;2022-12-28T12:23:18;9.10;99.90
2687;DHT22;1353;51.386;7.028;2022-12-28T12:25:48;9.10;99.90
2687;DHT22;1353;51.386;7.028;2022-12-28T12:28:28;9.10;99.90
2687;DHT22;1353;51.386;7.028;2022-12-28T12:30:57;9.10;99.90
2687;DHT22;1353;51.386;7.028;2022-12-28T12:33:27;9.10;99.90
2687;DHT22;1353;51.386;7.028;2022-12-28T12:36:01;9.00;99.90
2687;DHT22;1353;51.386;7.028;2022-12-28T12:38:41;9.10;99.90
2687;DHT22;1353;51.386;7.028;2022-12-28T12:41:22;9.00;99.90
2687;DHT22;1353;51.386;7.028;2022-12-28T12:44:03;9.00;99.90
2687;DHT22;1353;51.386;7.028;2022-12-28T12:50:09;8.80;99.90
2687;DHT22;1353;51.386;7.028;2022-12-28T12:52:41;8.80;99.90
2687;DHT22;1353;51.386;7.028;2022-12-28T12:55:19;8.80;99.90
2687;DHT22;1353;51.386;7.028;2022-12-28T12:57:55;8.80;99.90
2687;DHT22;1353;51.386;7.028;2022-12-28T13:00:29;8.70;99.90
2687;DHT22;1353;51.386;7.028;2022-12-28T13:03:26;8.60;99.90
2687;DHT22;1353;51.386;7.028;2022-12-28T13:05:57;8.60;99.90
2687;DHT22;1353;51.386;7.028;2022-12-28T13:08:25;8.60;99.90
2687;DHT22;1353;51.386;7.028;2022-12-28T13:10:55;8.50;99.90
2687;DHT22;1353;51.386;7.028;2022-12-28T13:13:28;8.50;99.90
2687;DHT22;1353;51.386;7.028;2022-12-28T13:16:00;8.50;99.90
2687;DHT22;1353;51.386;7.028;2022-12-28T13:18:28;8.50;99.90
2687;DHT22;1353;51.386;7.028;2022-12-28T13:20:56;8.40;99.90
2687;DHT22;1353;51.386;7.028;2022-12-28T13:23:23;8.40;99.90
2687;DHT22;1353;51.386;7.028;2022-12-28T13:25:52;8.40;99.90
2687;DHT22;1353;51.386;7.028;2022-12-28T13:28:21;8.40;99.90
2687;DHT22;1353;51.386;7.028;2022-12-28T13:31:07;8.50;99.90
2687;DHT22;1353;51.386;7.028;2022-12-28T13:33:35;8.40;99.90
2687;DHT22;1353;51.386;7.028;2022-12-28T13:36:20;8.40;99.90
2687;DHT22;1353;51.386;7.028;2022-12-28T13:38:59;8.40;99.90
2687;DHT22;1353;51.386;7.028;2022-12-28T13:41:26;8.40;99.90
2687;DHT22;1353;51.386;7.028;2022-12-28T13:47:14;8.50;99.90
2687;DHT22;1353;51.386;7.028;2022-12-28T13:49:45;8.50;99.90
2687;DHT22;1353;51.386;7.028;2022-12-28T13:52:19;8.50;99.90
2687;DHT22;1353;51.386;7.028;2022-12-28T13:54:52;8.50;99.90
2687;DHT22;1353;51.386;7.028;2022-12-28T13:57:23;8.50;99.90
2687;DHT22;1353;51.386;7.028;2022-12-28T13:59:53;8.50;99.90
2687;DHT22;1353;51.386;7.028;2022-12-28T14:02:22;8.50;99.90
2687;DHT22;1353;51.386;7.028;2022-12-28T14:04:50;8.60;99.90
2687;DHT22;1353;51.386;7.028;2022-12-28T14:07:18;8.50;99.90
2687;DHT22;1353;51.386;7.028;2022-12-28T14:09:46;8.50;99.90
2687;DHT22;1353;51.386;7.028;2022-12-28T14:12:13;8.50;99.90
2687;DHT22;1353;51.386;7.028;2022-12-28T14:14:42;8.50;99.90
2687;DHT22;1353;51.386;7.028;2022-12-28T14:17:10;8.50;99.90
2687;DHT22;1353;51.386;7.028;2022-12-28T14:19:38;8.60;99.90
2687;DHT22;1353;51.386;7.028;2022-12-28T14:22:23;8.60;99.90
2687;DHT22;1353;51.386;7.028;2022-12-28T14:25:02;8.70;99.90
2687;DHT22;1353;51.386;7.028;2022-12-28T14:27:30;8.70;99.90
2687;DHT22;1353;51.386;7.028;2022-12-28T14:29:57;8.70;99.90
2687;DHT22;1353;51.386;7.028;2022-12-28T14:32:25;8.70;99.90
2687;DHT22;1353;51.386;7.028;2022-12-28T14:34:56;8.60;99.90
2687;DHT22;1353;51.386;7.028;2022-12-28T14:37:25;8.60;99.90
2687;DHT22;1353;51.386;7.028;2022-12-28T14:39:58;8.60;99.90
2687;DHT22;1353;51.386;7.028;2022-12-28T14:42:26;8.60;99.90
2687;DHT22;1353;51.386;7.028;2022-12-28T14:44:53;8.60;99.90
2687;DHT22;1353;51.386;7.028;2022-12-28T14:47:33;8.60;99.90
2687;DHT22;1353;51.386;7.028;2022-12-28T14:50:11;8.70;99.90
2687;DHT22;1353;51.386;7.028;2022-12-28T14:52:45;8.60;99.90
2687;DHT22;1353;51.386;7.028;2022-12-28T14:55:23;8.60;99.90
2687;DHT22;1353;51.386;7.028;2022-12-28T14:57:53;8.70;99.90
2687;DHT22;1353;51.386;7.028;2022-12-28T15:00:23;8.60;99.90
2687;DHT22;1353;51.386;7.028;2022-12-28T15:02:51;8.60;99.90
2687;DHT22;1353;51.386;7.028;2022-12-28T15:05:39;8.60;99.90
2687;DHT22;1353;51.386;7.028;2022-12-28T15:08:08;8.60;99.90
2687;DHT22;1353;51.386;7.028;2022-12-28T15:10:38;8.60;99.90
2687;DHT22;1353;51.386;7.028;2022-12-28T15:13:06;8.60;99.90
2687;DHT22;1353;51.386;7.028;2022-12-28T15:15:33;8.70;99.90
2687;DHT22;1353;51.386;7.028;2022-12-28T15:18:00;8.70;99.90
2687;DHT22;1353;51.386;7.028;2022-12-28T15:20:27;8.60;99.90
2687;DHT22;1353;51.386;7.028;2022-12-28T15:22:55;8.70;99.90
2687;DHT22;1353;51.386;7.028;2022-12-28T15:25:22;8.60;99.90
2687;DHT22;1353;51.386;7.028;2022-12-28T15:27:50;8.70;99.90
2687;DHT22;1353;51.386;7.028;2022-12-28T15:30:17;8.60;99.90
2687;DHT22;1353;51.386;7.028;2022-12-28T15:32:44;8.70;99.90
2687;DHT22;1353;51.386;7.028;2022-12-28T15:35:11;8.70;99.90
2687;DHT22;1353;51.386;7.028;2022-12-28T15:37:38;8.70;99.90
2687;DHT22;1353;51.386;7.028;2022-12-28T15:40:08;8.70;99.90
2687;DHT22;1353;51.386;7.028;2022-12-28T15:42:35;8.70;99.90
2687;DHT22;1353;51.386;7.028;2022-12-28T15:45:02;8.70;99.90
2687;DHT22;1353;51.386;7.028;2022-12-28T15:47:28;8.80;99.90
2687;DHT22;1353;51.386;7.028;2022-12-28T15:49:55;8.80;99.90
2687;DHT22;1353;51.386;7.028;2022-12-28T15:52:25;8.70;99.90
2687;DHT22;1353;51.386;7.028;2022-12-28T15:54:51;8.70;99.90
2687;DHT22;1353;51.386;7.028;2022-12-28T15:57:19;8.70;99.90
2687;DHT22;1353;51.386;7.028;2022-12-28T15:59:46;8.70;99.90
2687;DHT22;1353;51.386;7.028;2022-12-28T16:02:13;8.60;99.90
2687;DHT22;1353;51.386;7.028;2022-12-28T16:04:40;8.60;99.90
2687;DHT22;1353;51.386;7.028;2022-12-28T16:07:08;8.60;99.90
2687;DHT22;1353;51.386;7.028;2022-12-28T16:09:35;8.70;99.90
2687;DHT22;1353;51.386;7.028;2022-12-28T16:12:02;8.60;99.90
2687;DHT22;1353;51.386;7.028;2022-12-28T16:14:30;8.70;99.90
2687;DHT22;1353;51.386;7.028;2022-12-28T16:16:57;8.70;99.90
2687;DHT22;1353;51.386;7.028;2022-12-28T16:19:24;8.60;99.90
2687;DHT22;1353;51.386;7.028;2022-12-28T16:21:51;8.70;99.90
2687;DHT22;1353;51.386;7.028;2022-12-28T16:24:18;8.90;99.90
2687;DHT22;1353;51.386;7.028;2022-12-28T16:26:45;9.00;99.90
2687;DHT22;1353;51.386;7.028;2022-12-28T16:29:12;9.00;99.90
2687;DHT22;1353;51.386;7.028;2022-12-28T16:31:40;8.90;99.90
2687;DHT22;1353;51.386;7.028;2022-12-28T16:34:10;8.90;99.90
2687;DHT22;1353;51.386;7.028;2022-12-28T16:36:37;9.00;99.90
2687;DHT22;1353;51.386;7.028;2022-12-28T16:39:06;8.90;99.90
2687;DHT22;1353;51.386;7.028;2022-12-28T16:41:33;8.90;99.90
2687;DHT22;1353;51.386;7.028;2022-12-28T16:44:03;9.00;99.90
2687;DHT22;1353;51.386;7.028;2022-12-28T16:46:30;9.00;99.90
2687;DHT22;1353;51.386;7.028;2022-12-28T16:49:00;9.00;99.90
2687;DHT22;1353;51.386;7.028;2022-12-28T16:51:27;8.90;99.90
2687;DHT22;1353;51.386;7.028;2022-12-28T16:53:54;8.90;99.90